createdAt,value
2023-09-01T00:00:53.476Z,100081.60
2023-09-01T00:03:42.504Z,100088.00
2023-09-01T00:06:19.911Z,100088.60
2023-09-01T00:08:53.534Z,100096.40
2023-09-01T00:11:26.908Z,100092.40
2023-09-01T00:14:00.362Z,100092.60
2023-09-01T00:16:33.833Z,100088.60
2023-09-01T00:19:07.267Z,100088.40
2023-09-01T00:21:41.289Z,100087.20
2023-09-01T00:24:14.728Z,100080.80
2023-09-01T00:26:48.160Z,100089.20
2023-09-01T00:29:21.350Z,100105.80
2023-09-01T00:31:55.256Z,100109.00
2023-09-01T00:34:28.783Z,100104.60
2023-09-01T00:37:02.220Z,100105.00
2023-09-01T00:39:35.551Z,100106.20
2023-09-01T00:42:09.373Z,100103.20
2023-09-01T00:44:42.545Z,100095.40
2023-09-01T00:47:16.571Z,100100.00
2023-09-01T00:49:50.769Z,100097.40
2023-09-01T00:52:24.199Z,100095.60
2023-09-01T00:54:57.580Z,100102.40
2023-09-01T00:57:31.143Z,100102.40
2023-09-01T01:00:06.963Z,100090.40
2023-09-01T01:02:41.062Z,100094.20
2023-09-01T01:05:16.898Z,100085.40
2023-09-01T01:07:58.682Z,100087.20
2023-09-01T01:10:41.662Z,100087.20
2023-09-01T01:13:21.046Z,100093.60
2023-09-01T01:15:57.748Z,100090.80
2023-09-01T01:18:35.439Z,100088.20
2023-09-01T01:21:18.712Z,100084.40
2023-09-01T01:23:53.525Z,100084.00
2023-09-01T01:26:28.365Z,100083.80
2023-09-01T01:29:02.214Z,100084.80
2023-09-01T01:31:35.468Z,100088.20
2023-09-01T01:34:18.395Z,100090.20
2023-09-01T01:37:02.828Z,100089.20
2023-09-01T01:39:38.451Z,100081.60
2023-09-01T01:42:16.680Z,100078.00
2023-09-01T01:44:53.213Z,100078.60
2023-09-01T01:47:28.281Z,100082.00
2023-09-01T01:50:02.140Z,100078.00
2023-09-01T01:52:35.373Z,100081.40
2023-09-01T01:55:10.132Z,100079.00
2023-09-01T01:57:43.260Z,100081.80
2023-09-01T02:00:18.353Z,100076.40
2023-09-01T02:02:51.766Z,100077.40
2023-09-01T02:05:25.597Z,100078.80
2023-09-01T02:07:58.956Z,100081.00
2023-09-01T02:10:32.328Z,100079.80
2023-09-01T02:13:06.341Z,100076.80
2023-09-01T02:15:40.264Z,100079.20
2023-09-01T02:18:13.966Z,100078.00
2023-09-01T02:20:47.172Z,100078.20
2023-09-01T02:23:21.976Z,100078.60
2023-09-01T02:25:55.673Z,100074.60
2023-09-01T02:28:29.265Z,100080.20
2023-09-01T02:31:11.982Z,100080.20
2023-09-01T02:33:46.226Z,100080.80
2023-09-01T02:36:31.663Z,100086.00
2023-09-01T02:39:06.574Z,100080.20
2023-09-01T02:41:39.975Z,100079.40
2023-09-01T02:44:13.493Z,100087.20
2023-09-01T02:46:46.796Z,100083.00
2023-09-01T02:49:20.124Z,100082.60
2023-09-01T02:51:53.332Z,100084.80
2023-09-01T02:54:26.736Z,100092.00
2023-09-01T02:57:00.194Z,100084.40
2023-09-01T02:59:33.273Z,100084.00
2023-09-01T03:02:07.018Z,100085.40
2023-09-01T03:04:40.293Z,100094.20
2023-09-01T03:07:13.615Z,100092.40
2023-09-01T03:09:47.103Z,100098.80
2023-09-01T03:12:20.452Z,100100.00
2023-09-01T03:14:54.230Z,100099.80
2023-09-01T03:17:27.459Z,100095.00
2023-09-01T03:20:00.997Z,100094.20
2023-09-01T03:22:34.252Z,100098.80
2023-09-01T03:25:11.714Z,100097.20
2023-09-01T03:27:45.721Z,100098.20
2023-09-01T03:30:19.545Z,100095.60
2023-09-01T03:32:53.672Z,100101.40
2023-09-01T03:35:27.082Z,100093.60
2023-09-01T03:38:00.412Z,100097.80
2023-09-01T03:40:33.692Z,100098.60
2023-09-01T03:43:09.637Z,100098.40
2023-09-01T03:45:46.990Z,100100.60
2023-09-01T03:48:20.763Z,100100.60
2023-09-01T03:51:17.196Z,100099.80
2023-09-01T03:53:50.494Z,100091.60
2023-09-01T03:56:25.323Z,100098.60
2023-09-01T03:58:58.687Z,100101.40
2023-09-01T04:01:32.480Z,100099.80
2023-09-01T04:04:07.801Z,100102.20
2023-09-01T04:06:41.381Z,100108.20
2023-09-01T04:09:14.815Z,100111.40
2023-09-01T04:11:51.191Z,100111.80
2023-09-01T04:14:24.723Z,100113.60
2023-09-01T04:16:57.868Z,100109.80
2023-09-01T04:19:31.273Z,100110.20
2023-09-01T04:22:04.807Z,100112.20
2023-09-01T04:24:38.185Z,100116.00
2023-09-01T04:27:11.968Z,100119.00
2023-09-01T04:29:55.570Z,100120.00
2023-09-01T04:32:39.836Z,100118.40
2023-09-01T04:35:14.443Z,100122.20
2023-09-01T04:37:47.737Z,100122.80
2023-09-01T04:40:21.217Z,100126.20
2023-09-01T04:42:56.886Z,100126.20
2023-09-01T04:45:31.079Z,100130.80
2023-09-01T04:48:04.700Z,100129.00
2023-09-01T04:50:38.191Z,100131.80
2023-09-01T04:53:12.630Z,100130.20
2023-09-01T04:55:46.156Z,100136.00
2023-09-01T04:58:19.229Z,100140.40
2023-09-01T05:00:54.194Z,100139.20
2023-09-01T05:03:28.332Z,100142.00
2023-09-01T05:06:02.381Z,100139.00
2023-09-01T05:08:35.721Z,100141.40
2023-09-01T05:11:09.025Z,100141.20
2023-09-01T05:13:42.538Z,100144.20
2023-09-01T05:16:15.920Z,100146.80
2023-09-01T05:18:49.429Z,100147.20
2023-09-01T05:21:22.926Z,100145.60
2023-09-01T05:23:57.246Z,100147.40
2023-09-01T05:26:31.074Z,100153.40
2023-09-01T05:29:04.832Z,100148.20
2023-09-01T05:31:38.511Z,100151.20
2023-09-01T05:34:11.819Z,100149.80
2023-09-01T05:36:45.245Z,100155.40
2023-09-01T05:39:18.713Z,100151.40
2023-09-01T05:41:52.313Z,100150.80
2023-09-01T05:44:25.788Z,100147.20
2023-09-01T05:46:59.515Z,100143.40
2023-09-01T05:49:34.263Z,100153.20
2023-09-01T05:52:08.502Z,100150.80
2023-09-01T05:54:41.686Z,100160.40
2023-09-01T05:57:15.090Z,100154.40
2023-09-01T05:59:48.389Z,100157.60
2023-09-01T06:02:22.009Z,100154.80
2023-09-01T06:04:55.628Z,100155.20
2023-09-01T06:07:29.363Z,100150.20
2023-09-01T06:10:02.626Z,100158.20
2023-09-01T06:12:36.075Z,100159.40
2023-09-01T06:15:11.493Z,100162.20
2023-09-01T06:17:47.081Z,100164.00
2023-09-01T06:20:21.049Z,100159.60
2023-09-01T06:22:55.964Z,100167.40
2023-09-01T06:25:29.462Z,100170.00
2023-09-01T06:28:03.822Z,100167.60
2023-09-01T06:30:37.608Z,100167.60
2023-09-01T06:33:11.527Z,100174.20
2023-09-01T06:35:45.323Z,100173.20
2023-09-01T06:38:18.734Z,100171.60
2023-09-01T06:40:52.129Z,100179.40
2023-09-01T06:43:25.744Z,100182.60
2023-09-01T06:45:59.555Z,100176.00
2023-09-01T06:48:33.417Z,100175.40
2023-09-01T06:51:07.035Z,100177.00
2023-09-01T06:53:40.412Z,100176.80
2023-09-01T06:56:13.671Z,100176.40
2023-09-01T06:58:46.971Z,100171.20
2023-09-01T07:01:20.535Z,100178.20
2023-09-01T07:03:54.151Z,100181.20
2023-09-01T07:06:27.655Z,100169.20
2023-09-01T07:09:00.971Z,100176.40
2023-09-01T07:11:34.490Z,100179.40
2023-09-01T07:14:08.061Z,100178.00
2023-09-01T07:16:41.462Z,100181.40
2023-09-01T07:19:14.676Z,100181.60
2023-09-01T07:21:47.966Z,100182.80
2023-09-01T07:24:21.498Z,100182.40
2023-09-01T07:26:54.997Z,100179.40
2023-09-01T07:29:28.624Z,100183.60
2023-09-01T07:32:02.210Z,100186.00
2023-09-01T07:34:35.706Z,100183.40
2023-09-01T07:37:09.068Z,100187.20
2023-09-01T07:39:42.180Z,100188.80
2023-09-01T07:42:15.541Z,100182.80
2023-09-01T07:44:49.676Z,100180.40
2023-09-01T07:47:22.923Z,100189.20
2023-09-01T07:49:56.435Z,100179.20
2023-09-01T07:52:30.839Z,100178.00
2023-09-01T07:55:06.502Z,100183.00
2023-09-01T07:57:42.816Z,100182.40
2023-09-01T08:00:19.513Z,100184.20
2023-09-01T08:02:54.839Z,100186.00
2023-09-01T08:05:28.656Z,100188.20
2023-09-01T08:08:02.133Z,100185.60
2023-09-01T08:10:35.522Z,100188.00
2023-09-01T08:13:10.066Z,100186.00
2023-09-01T08:15:43.630Z,100184.60
2023-09-01T08:18:17.159Z,100179.20
2023-09-01T08:20:50.509Z,100179.40
2023-09-01T08:23:31.064Z,100181.00
2023-09-01T08:26:06.943Z,100176.40
2023-09-01T08:28:40.675Z,100183.40
2023-09-01T08:31:14.590Z,100178.40
2023-09-01T08:33:47.961Z,100176.80
2023-09-01T08:36:22.755Z,100177.00
2023-09-01T08:38:56.113Z,100176.60
2023-09-01T08:41:29.879Z,100176.40
2023-09-01T08:44:08.387Z,100178.60
2023-09-01T08:46:42.141Z,100178.00
2023-09-01T08:49:16.004Z,100184.20
2023-09-01T08:51:50.372Z,100180.40
2023-09-01T08:54:24.599Z,100177.00
2023-09-01T08:56:57.920Z,100173.20
2023-09-01T08:59:32.525Z,100173.80
2023-09-01T09:02:07.201Z,100177.00
2023-09-01T09:04:40.687Z,100178.40
2023-09-01T09:07:22.100Z,100181.00
2023-09-01T09:10:04.788Z,100178.60
2023-09-01T09:12:43.970Z,100171.80
2023-09-01T09:15:21.469Z,100173.60
2023-09-01T09:17:54.844Z,100182.20
2023-09-01T09:20:40.908Z,100183.20
2023-09-01T09:23:14.511Z,100181.00
2023-09-01T09:25:50.834Z,100181.60
2023-09-01T09:28:25.054Z,100182.40
2023-09-01T09:30:58.557Z,100174.80
2023-09-01T09:33:34.894Z,100177.80
2023-09-01T09:36:08.950Z,100180.80
2023-09-01T09:38:49.138Z,100180.60
2023-09-01T09:41:22.598Z,100179.20
2023-09-01T09:43:56.489Z,100178.80
2023-09-01T09:46:46.230Z,100184.00
2023-09-01T09:49:18.087Z,100186.00
2023-09-01T09:51:52.861Z,100182.80
2023-09-01T09:54:28.042Z,100184.80
2023-09-01T09:57:04.461Z,100180.20
2023-09-01T09:59:50.113Z,100189.80
2023-09-01T10:02:41.771Z,100195.80
2023-09-01T10:05:16.890Z,100186.80
2023-09-01T10:07:50.627Z,100186.80
2023-09-01T10:10:24.749Z,100187.20
2023-09-01T10:12:59.080Z,100187.00
2023-09-01T10:15:33.190Z,100185.40
2023-09-01T10:18:10.171Z,100194.20
2023-09-01T10:20:46.386Z,100188.80
2023-09-01T10:23:20.454Z,100196.60
2023-09-01T10:26:26.521Z,100189.00
2023-09-01T10:29:02.569Z,100195.20
2023-09-01T10:31:37.821Z,100196.00
2023-09-01T10:34:17.401Z,100200.00
2023-09-01T10:37:32.035Z,100206.60
2023-09-01T10:40:25.703Z,100199.60
2023-09-01T10:42:59.297Z,100196.60
2023-09-01T10:45:32.834Z,100203.00
2023-09-01T10:48:13.177Z,100198.60
2023-09-01T10:51:07.292Z,100200.60
2023-09-01T10:53:40.694Z,100199.80
2023-09-01T10:56:16.734Z,100195.00
2023-09-01T10:58:55.168Z,100199.20
2023-09-01T11:01:37.487Z,100192.80
2023-09-01T11:04:34.374Z,100202.20
2023-09-01T11:07:12.026Z,100194.80
2023-09-01T11:09:59.313Z,100185.80
2023-09-01T11:12:36.220Z,100199.60
2023-09-01T11:15:11.680Z,100191.40
2023-09-01T11:17:48.823Z,100192.80
2023-09-01T11:20:31.151Z,100188.20
2023-09-01T11:23:05.483Z,100188.20
2023-09-01T11:25:39.323Z,100190.20
2023-09-01T11:28:17.437Z,100185.60
2023-09-01T11:31:05.353Z,100184.60
2023-09-01T11:33:40.139Z,100183.00
2023-09-01T11:36:14.743Z,100184.80
2023-09-01T11:38:48.230Z,100182.80
2023-09-01T11:41:24.525Z,100182.40
2023-09-01T11:43:58.261Z,100186.60
2023-09-01T11:46:39.105Z,100179.60
2023-09-01T11:49:18.098Z,100179.20
2023-09-01T11:51:51.420Z,100179.20
2023-09-01T11:54:24.674Z,100179.00
2023-09-01T11:56:57.852Z,100181.80
2023-09-01T11:59:31.059Z,100178.20
2023-09-01T12:02:04.510Z,100179.80
2023-09-01T12:04:46.405Z,100180.20
2023-09-01T12:07:31.297Z,100177.00
2023-09-01T12:10:23.989Z,100183.40
2023-09-01T12:13:10.169Z,100188.60
2023-09-01T12:16:04.364Z,100185.60
2023-09-01T12:18:44.504Z,100188.80
2023-09-01T12:21:18.267Z,100184.20
2023-09-01T12:23:52.298Z,100181.40
2023-09-01T12:26:25.579Z,100174.80
2023-09-01T12:28:58.764Z,100181.20
2023-09-01T12:31:32.146Z,100186.40
2023-09-01T12:34:05.680Z,100187.60
2023-09-01T12:36:39.034Z,100197.60
2023-09-01T12:39:12.326Z,100199.80
2023-09-01T12:41:45.920Z,100200.00
2023-09-01T12:44:20.334Z,100197.40
2023-09-01T12:46:54.299Z,100191.00
2023-09-01T12:49:27.715Z,100195.00
2023-09-01T12:52:01.486Z,100192.00
2023-09-01T12:54:34.580Z,100187.80
2023-09-01T12:57:09.353Z,100183.40
2023-09-01T12:59:42.705Z,100189.60
2023-09-01T13:02:15.879Z,100188.40
2023-09-01T13:04:49.079Z,100189.00
2023-09-01T13:07:22.339Z,100190.20
2023-09-01T13:09:56.533Z,100191.00
2023-09-01T13:12:30.173Z,100188.40
2023-09-01T13:15:04.122Z,100183.80
2023-09-01T13:17:37.996Z,100185.40
2023-09-01T13:20:13.716Z,100187.20
2023-09-01T13:22:47.291Z,100190.40
2023-09-01T13:25:20.880Z,100185.20
2023-09-01T13:27:54.248Z,100195.20
2023-09-01T13:30:27.914Z,100186.20
2023-09-01T13:33:01.487Z,100190.40
2023-09-01T13:35:35.965Z,100188.80
2023-09-01T13:38:09.302Z,100192.00
2023-09-01T13:40:43.164Z,100192.40
2023-09-01T13:43:16.697Z,100188.20
2023-09-01T13:45:50.178Z,100192.40
2023-09-01T13:48:23.551Z,100186.20
2023-09-01T13:50:57.453Z,100181.80
2023-09-01T13:53:30.848Z,100187.40
2023-09-01T13:56:04.442Z,100182.80
2023-09-01T13:58:38.286Z,100184.80
2023-09-01T14:01:11.653Z,100183.20
2023-09-01T14:03:47.747Z,100187.40
2023-09-01T14:06:21.334Z,100187.80
2023-09-01T14:08:54.692Z,100198.20
2023-09-01T14:11:31.124Z,100187.80
2023-09-01T14:14:05.058Z,100188.00
2023-09-01T14:16:38.387Z,100188.00
2023-09-01T14:19:11.726Z,100176.20
2023-09-01T14:21:45.365Z,100176.80
2023-09-01T14:24:18.929Z,100181.00
2023-09-01T14:26:53.165Z,100185.80
2023-09-01T14:29:26.883Z,100189.20
2023-09-01T14:32:00.232Z,100186.00
2023-09-01T14:34:33.711Z,100190.00
2023-09-01T14:37:07.228Z,100187.60
2023-09-01T14:39:40.409Z,100189.40
2023-09-01T14:42:13.647Z,100188.60
2023-09-01T14:44:47.016Z,100184.00
2023-09-01T14:47:20.527Z,100186.00
2023-09-01T14:49:53.938Z,100185.60
2023-09-01T14:52:27.473Z,100182.60
2023-09-01T14:55:01.026Z,100173.20
2023-09-01T14:57:34.538Z,100181.80
2023-09-01T15:00:09.981Z,100187.00
2023-09-01T15:02:44.121Z,100184.80
2023-09-01T15:05:17.593Z,100187.00
2023-09-01T15:07:51.126Z,100188.80
2023-09-01T15:10:24.536Z,100189.80
2023-09-01T15:12:57.930Z,100193.00
2023-09-01T15:15:31.158Z,100188.20
2023-09-01T15:18:04.896Z,100184.20
2023-09-01T15:20:38.409Z,100184.60
2023-09-01T15:23:12.283Z,100183.80
2023-09-01T15:25:45.497Z,100192.00
2023-09-01T15:28:18.735Z,100190.00
2023-09-01T15:30:52.023Z,100189.60
2023-09-01T15:33:25.476Z,100193.80
2023-09-01T15:36:02.804Z,100192.00
2023-09-01T15:38:36.611Z,100188.80
2023-09-01T15:41:12.439Z,100187.60
2023-09-01T15:43:46.122Z,100200.20
2023-09-01T15:46:19.825Z,100200.00
2023-09-01T15:48:53.245Z,100199.20
2023-09-01T15:51:27.089Z,100203.40
2023-09-01T15:54:00.968Z,100195.80
2023-09-01T15:56:34.257Z,100194.60
2023-09-01T15:59:10.116Z,100183.40
2023-09-01T16:01:43.788Z,100179.80
2023-09-01T16:04:17.302Z,100185.40
2023-09-01T16:06:51.156Z,100184.40
2023-09-01T16:09:24.589Z,100180.00
2023-09-01T16:11:58.151Z,100177.60
2023-09-01T16:14:31.725Z,100178.40
2023-09-01T16:17:05.365Z,100182.20
2023-09-01T16:19:39.171Z,100186.80
2023-09-01T16:22:12.673Z,100185.40
2023-09-01T16:24:46.131Z,100178.80
2023-09-01T16:27:19.845Z,100181.20
2023-09-01T16:29:53.408Z,100178.00
2023-09-01T16:32:26.980Z,100174.80
2023-09-01T16:35:10.197Z,100178.00
2023-09-01T16:37:53.102Z,100178.60
2023-09-01T16:40:27.340Z,100190.00
2023-09-01T16:43:01.356Z,100176.80
2023-09-01T16:45:36.729Z,100175.80
2023-09-01T16:48:11.263Z,100179.20
2023-09-01T16:50:47.329Z,100174.40
2023-09-01T16:53:20.963Z,100181.40
2023-09-01T16:55:54.818Z,100185.20
2023-09-01T16:58:28.402Z,100196.80
2023-09-01T17:01:02.442Z,100198.60
2023-09-01T17:03:35.829Z,100189.60
2023-09-01T17:06:09.285Z,100192.80
2023-09-01T17:08:49.712Z,100188.20
2023-09-01T17:11:23.062Z,100183.40
2023-09-01T17:13:56.594Z,100183.80
2023-09-01T17:16:30.148Z,100176.40
2023-09-01T17:19:03.542Z,100178.20
2023-09-01T17:21:37.634Z,100190.60
2023-09-01T17:24:12.133Z,100198.00
2023-09-01T17:26:45.880Z,100202.60
2023-09-01T17:29:19.223Z,100208.40
2023-09-01T17:31:52.767Z,100214.40
2023-09-01T17:34:26.273Z,100205.80
2023-09-01T17:36:59.658Z,100204.00
2023-09-01T17:39:33.365Z,100204.00
2023-09-01T17:42:07.361Z,100207.40
2023-09-01T17:44:40.833Z,100211.40
2023-09-01T17:47:14.433Z,100207.20
2023-09-01T17:49:47.994Z,100210.00
2023-09-01T17:52:21.492Z,100216.80
2023-09-01T17:54:54.646Z,100217.60
2023-09-01T17:57:27.763Z,100220.60
2023-09-01T18:00:00.867Z,100223.20
2023-09-01T18:02:40.192Z,100228.80
2023-09-01T18:05:15.717Z,100223.80
2023-09-01T18:07:48.866Z,100228.40
2023-09-01T18:10:22.017Z,100230.80
2023-09-01T18:12:55.738Z,100235.20
2023-09-01T18:15:28.797Z,100235.00
2023-09-01T18:18:03.018Z,100233.80
2023-09-01T18:20:36.210Z,100235.00
2023-09-01T18:23:16.771Z,100235.80
2023-09-01T18:25:50.437Z,100237.00
2023-09-01T18:28:23.559Z,100231.80
2023-09-01T18:30:56.951Z,100233.60
2023-09-01T18:33:31.610Z,100246.00
2023-09-01T18:36:05.821Z,100246.40
2023-09-01T18:38:38.987Z,100253.80
2023-09-01T18:41:12.322Z,100254.80
2023-09-01T18:43:47.096Z,100251.80
2023-09-01T18:46:20.153Z,100249.40
2023-09-01T18:48:53.359Z,100249.20
2023-09-01T18:51:26.818Z,100248.60
2023-09-01T18:54:00.608Z,100257.40
2023-09-01T18:56:33.756Z,100258.60
2023-09-01T18:59:07.819Z,100259.80
2023-09-01T19:01:41.528Z,100257.80
2023-09-01T19:04:15.219Z,100252.60
2023-09-01T19:06:48.686Z,100261.40
2023-09-01T19:09:28.371Z,100266.40
2023-09-01T19:12:02.096Z,100271.20
2023-09-01T19:14:35.613Z,100271.40
2023-09-01T19:17:10.312Z,100270.40
2023-09-01T19:19:43.546Z,100267.60
2023-09-01T19:22:17.834Z,100268.80
2023-09-01T19:24:53.255Z,100270.00
2023-09-01T19:27:26.445Z,100268.80
2023-09-01T19:29:59.702Z,100267.60
2023-09-01T19:32:34.460Z,100263.00
2023-09-01T19:35:12.515Z,100268.00
2023-09-01T19:37:51.992Z,100271.80
2023-09-01T19:40:25.884Z,100270.20
2023-09-01T19:43:05.049Z,100270.80
2023-09-01T19:45:39.644Z,100276.00
2023-09-01T19:48:12.905Z,100273.00
2023-09-01T19:50:46.228Z,100274.40
2023-09-01T19:53:28.271Z,100273.80
2023-09-01T19:56:08.117Z,100272.20
2023-09-01T19:58:45.629Z,100274.00
2023-09-01T20:01:22.806Z,100275.40
2023-09-01T20:03:56.820Z,100278.00
2023-09-01T20:06:32.682Z,100276.40
2023-09-01T20:09:16.761Z,100277.60
2023-09-01T20:11:50.251Z,100280.00
2023-09-01T20:14:23.997Z,100276.80
2023-09-01T20:16:57.027Z,100272.60
2023-09-01T20:19:30.334Z,100281.00
2023-09-01T20:22:03.882Z,100283.80
2023-09-01T20:24:37.251Z,100285.00
2023-09-01T20:27:10.626Z,100284.20
2023-09-01T20:29:43.584Z,100285.00
2023-09-01T20:32:16.834Z,100287.80
2023-09-01T20:34:49.903Z,100289.60
2023-09-01T20:37:23.362Z,100291.60
2023-09-01T20:39:58.545Z,100292.40
2023-09-01T20:42:31.639Z,100297.60
2023-09-01T20:45:05.170Z,100300.00
2023-09-01T20:47:38.645Z,100296.40
2023-09-01T20:50:13.079Z,100305.00
2023-09-01T20:52:46.244Z,100301.80
2023-09-01T20:55:21.134Z,100308.60
2023-09-01T20:57:55.180Z,100312.00
2023-09-01T21:00:29.290Z,100317.40
2023-09-01T21:03:03.798Z,100315.20
2023-09-01T21:05:37.178Z,100319.20
2023-09-01T21:08:11.257Z,100325.00
2023-09-01T21:10:44.561Z,100334.80
2023-09-01T21:13:17.933Z,100339.60
2023-09-01T21:15:51.783Z,100337.00
2023-09-01T21:18:24.833Z,100336.40
2023-09-01T21:20:57.931Z,100341.00
2023-09-01T21:23:32.616Z,100341.60
2023-09-01T21:26:05.713Z,100343.60
2023-09-01T21:28:38.937Z,100352.00
2023-09-01T21:31:12.239Z,100352.80
2023-09-01T21:33:45.339Z,100354.80
2023-09-01T21:36:18.410Z,100355.80
2023-09-01T21:38:51.478Z,100349.00
2023-09-01T21:41:24.563Z,100347.40
2023-09-01T21:43:57.874Z,100352.00
2023-09-01T21:46:30.998Z,100351.40
2023-09-01T21:49:04.548Z,100355.20
2023-09-01T21:51:37.763Z,100355.40
2023-09-01T21:54:11.327Z,100350.40
2023-09-01T21:56:44.382Z,100348.80
2023-09-01T21:59:17.543Z,100350.60
2023-09-01T22:01:50.708Z,100354.40
2023-09-01T22:04:23.709Z,100355.20
2023-09-01T22:06:56.733Z,100349.20
2023-09-01T22:09:29.965Z,100350.60
2023-09-01T22:12:03.924Z,100342.80
2023-09-01T22:14:38.112Z,100328.60
2023-09-01T22:17:11.242Z,100318.00
2023-09-01T22:19:44.666Z,100317.60
2023-09-01T22:22:17.973Z,100317.60
2023-09-01T22:24:51.030Z,100324.00
2023-09-01T22:27:24.202Z,100324.20
2023-09-01T22:29:57.297Z,100336.40
2023-09-01T22:32:30.330Z,100335.80
2023-09-01T22:35:03.660Z,100335.20
2023-09-01T22:37:36.662Z,100332.40
2023-09-01T22:40:12.436Z,100326.60
2023-09-01T22:42:46.410Z,100318.60
2023-09-01T22:45:19.834Z,100314.20
2023-09-01T22:47:53.075Z,100314.00
2023-09-01T22:50:26.193Z,100321.20
2023-09-01T22:52:59.443Z,100320.40
2023-09-01T22:55:32.624Z,100322.40
2023-09-01T22:58:06.012Z,100320.40
2023-09-01T23:00:41.206Z,100327.20
2023-09-01T23:03:14.502Z,100333.00
2023-09-01T23:05:47.838Z,100331.20
2023-09-01T23:08:21.180Z,100334.80
2023-09-01T23:10:54.354Z,100334.00
2023-09-01T23:13:30.290Z,100335.40
2023-09-01T23:16:03.700Z,100327.40
2023-09-01T23:18:36.825Z,100333.00
2023-09-01T23:21:09.991Z,100331.40
2023-09-01T23:23:43.004Z,100332.60
2023-09-01T23:26:16.022Z,100329.40
2023-09-01T23:28:49.031Z,100323.80
2023-09-01T23:31:22.170Z,100322.00
2023-09-01T23:33:55.756Z,100322.40
2023-09-01T23:36:29.070Z,100327.00
2023-09-01T23:39:02.087Z,100333.40
2023-09-01T23:41:35.277Z,100333.20
2023-09-01T23:44:08.751Z,100331.60
2023-09-01T23:46:41.750Z,100332.40
2023-09-01T23:49:14.725Z,100326.80
2023-09-01T23:51:47.935Z,100325.60
2023-09-01T23:54:21.077Z,100326.60
2023-09-01T23:56:54.132Z,100326.00
2023-09-01T23:59:27.305Z,100325.20
